Terminal Aerodrome Forecast
Issued by NWS

Home | Current Version | Previous Version | Text Only | Print | Product List | Glossary On
Versions: 1 2 3 4 5 6 7 8 9 10 11 12 13 14 15 16 17 18
000
FTUS43 KILX 050142 AAB
TAFCMI
TAF AMD
KCMI 050142Z 0502/0524 01010KT 4SM TSRA SCT015CB OVC050
      TEMPO 0502/0503 01018G27KT 3/4SM +TSRA BR BKN018CB
     FM050300 VRB03KT P6SM SCT035 BKN250
     FM051000 VRB03KT 4SM BR SCT250
     FM051400 18006KT P6SM BKN150=

USA.gov is the U.S. government's official web portal to all federal, state and local government web resources and services.